Time;durP1;ratioP1;P1;durP2;ratioP2;P2;SDS_P1;SDS_P2;PMS_P1;PMS_P2;Temp;Humidity;BMP_temperature;BMP_pressure;BME280_temperature;BME280_humidity;BME280_pressure;Samples;Min_cycle;Max_cycle;Signal;HPM_P1;HPM_P2
2022/07/02 03:01:54;;;;;;;0.77;0.60;;;16.80;80.10;;;;;;5565584;22;20827;-72
2022/07/02 03:04:20;;;;;;;0.70;0.60;;;16.80;80.10;;;;;;5052874;28;20941;-72
2022/07/02 03:06:47;;;;;;;0.70;0.60;;;16.80;80.10;;;;;;5052763;28;20979;-72
2022/07/02 03:09:13;;;;;;;0.70;0.60;;;16.80;80.10;;;;;;5053011;28;20442;-71
2022/07/02 03:11:40;;;;;;;0.70;0.50;;;16.80;80.20;;;;;;5052953;28;20462;-71
2022/07/02 03:14:07;;;;;;;0.70;0.60;;;16.80;80.20;;;;;;5054491;28;20458;-72
2022/07/02 03:16:33;;;;;;;0.70;0.70;;;16.80;80.20;;;;;;5052989;28;20442;-72
2022/07/02 03:19:01;;;;;;;0.73;0.63;;;16.70;80.30;;;;;;5052929;28;20450;-72
2022/07/02 03:21:28;;;;;;;0.90;0.80;;;16.70;80.40;;;;;;5053615;28;20512;-72
2022/07/02 03:23:55;;;;;;;0.90;0.60;;;16.70;80.30;;;;;;5056711;28;20477;-72
2022/07/02 03:26:21;;;;;;;0.80;0.80;;;16.80;80.20;;;;;;5056491;28;20937;-72
2022/07/02 03:28:48;;;;;;;0.80;0.80;;;16.70;80.10;;;;;;5056469;28;20999;-72
2022/07/02 03:31:15;;;;;;;0.97;0.80;;;16.70;80.00;;;;;;5056624;28;20521;-72
2022/07/02 03:33:41;;;;;;;0.80;0.70;;;16.70;80.10;;;;;;5056673;28;20488;-72
2022/07/02 03:36:11;;;;;;;0.80;0.70;;;16.70;80.10;;;;;;5056547;28;20492;-72
2022/07/02 03:38:38;;;;;;;0.70;0.60;;;16.70;80.10;;;;;;5056531;28;20496;-73
2022/07/02 03:41:06;;;;;;;0.93;0.63;;;16.70;80.10;;;;;;5056202;28;20535;-72
2022/07/02 03:43:33;;;;;;;0.70;0.60;;;16.70;80.00;;;;;;5056425;28;20514;-72
2022/07/02 03:45:59;;;;;;;0.70;0.60;;;16.70;80.00;;;;;;5056128;28;20572;-72
2022/07/02 03:48:26;;;;;;;0.73;0.63;;;16.70;80.00;;;;;;5056354;28;20450;-72
2022/07/02 03:50:53;;;;;;;0.70;0.50;;;16.70;80.00;;;;;;5056360;28;20477;-72
2022/07/02 03:53:21;;;;;;;0.70;0.60;;;16.70;80.00;;;;;;5056319;28;20442;-72
2022/07/02 03:55:48;;;;;;;0.80;0.60;;;16.70;79.90;;;;;;5055975;28;20862;-72
2022/07/02 03:58:14;;;;;;;0.70;0.60;;;16.70;79.80;;;;;;5057281;28;20516;-72
2022/07/02 04:00:41;;;;;;;0.70;0.60;;;16.70;79.70;;;;;;5056731;28;20450;-72
2022/07/02 04:03:08;;;;;;;0.80;0.70;;;16.70;80.00;;;;;;5056104;28;20470;-72
2022/07/02 04:05:34;;;;;;;0.70;0.60;;;16.70;79.90;;;;;;5056082;28;20442;-72
2022/07/02 04:08:01;;;;;;;0.70;0.60;;;16.80;79.80;;;;;;5055981;28;20454;-72
2022/07/02 04:10:29;;;;;;;0.70;0.60;;;16.80;79.80;;;;;;5055880;28;20450;-72
2022/07/02 04:12:56;;;;;;;0.73;0.63;;;16.80;79.90;;;;;;5055936;28;20442;-72
2022/07/02 04:15:23;;;;;;;0.70;0.70;;;16.90;79.90;;;;;;5055877;28;20453;-72
2022/07/02 04:17:49;;;;;;;0.70;0.70;;;16.90;80.00;;;;;;5055807;28;20446;-72
2022/07/02 04:20:16;;;;;;;0.70;0.60;;;16.90;80.10;;;;;;5055719;28;20504;-72
2022/07/02 04:22:43;;;;;;;0.80;0.80;;;17.00;80.10;;;;;;5055313;28;21004;-71
2022/07/02 04:25:10;;;;;;;0.73;0.70;;;17.10;80.10;;;;;;5055499;28;20451;-72
2022/07/02 04:27:38;;;;;;;0.70;0.70;;;17.10;80.30;;;;;;5055342;28;20938;-70
2022/07/02 04:30:05;;;;;;;0.90;0.80;;;17.20;80.30;;;;;;5055505;28;20504;-70
2022/07/02 04:32:32;;;;;;;1.10;1.00;;;17.20;80.40;;;;;;5055093;28;20459;-69
2022/07/02 04:34:59;;;;;;;0.90;0.90;;;17.30;80.60;;;;;;5055432;28;20446;-70
2022/07/02 04:37:25;;;;;;;0.70;0.70;;;17.30;80.60;;;;;;5055476;28;20450;-70
2022/07/02 04:39:52;;;;;;;0.90;0.70;;;17.40;80.40;;;;;;5055464;28;20507;-70
2022/07/02 04:42:19;;;;;;;0.70;0.70;;;17.40;80.50;;;;;;5054985;28;20885;-70
2022/07/02 04:44:47;;;;;;;0.70;0.70;;;17.50;80.30;;;;;;5055359;28;20469;-70
2022/07/02 04:47:13;;;;;;;0.77;0.77;;;17.50;80.20;;;;;;5055488;28;20476;-70
2022/07/02 04:49:40;;;;;;;0.73;0.73;;;17.60;80.00;;;;;;5055340;28;20450;-71
2022/07/02 04:52:07;;;;;;;1.00;0.90;;;17.70;79.90;;;;;;5055274;28;20463;-70
2022/07/02 04:54:34;;;;;;;2.40;0.80;;;17.80;79.70;;;;;;5055321;28;20496;-70
2022/07/02 04:57:00;;;;;;;0.80;0.80;;;17.70;79.40;;;;;;5055203;28;20446;-71
2022/07/02 04:59:27;;;;;;;1.20;0.80;;;17.70;79.80;;;;;;5055123;28;20501;-71
2022/07/02 05:01:55;;;;;;;0.90;0.80;;;17.60;79.80;;;;;;5054786;28;20894;-71
2022/07/02 05:04:22;;;;;;;0.80;0.80;;;17.20;81.30;;;;;;5054745;28;20532;-71
2022/07/02 05:06:48;;;;;;;0.80;0.80;;;16.90;82.30;;;;;;5055099;28;20516;-71
2022/07/02 05:09:15;;;;;;;0.80;0.80;;;16.60;83.90;;;;;;5054984;28;20458;-71
2022/07/02 05:11:42;;;;;;;0.77;0.77;;;16.80;83.80;;;;;;5055092;28;20470;-70
2022/07/02 05:14:08;;;;;;;0.70;0.70;;;17.20;82.80;;;;;;5055122;28;20434;-71
2022/07/02 05:16:35;;;;;;;0.80;0.80;;;17.40;82.20;;;;;;5054992;28;20507;-71
2022/07/02 05:19:03;;;;;;;0.80;0.80;;;17.50;82.00;;;;;;5054526;28;20941;-71
2022/07/02 05:21:30;;;;;;;0.70;0.70;;;17.70;81.30;;;;;;5054570;28;20467;-71
2022/07/02 05:23:56;;;;;;;1.07;0.97;;;17.60;81.70;;;;;;5054448;28;20478;-71
2022/07/02 05:26:24;;;;;;;0.70;0.67;;;17.40;82.10;;;;;;5054555;28;20454;-71
2022/07/02 05:28:51;;;;;;;0.80;0.80;;;17.40;83.00;;;;;;5054553;28;20540;-71
2022/07/02 05:31:18;;;;;;;1.47;0.83;;;17.50;81.70;;;;;;5053974;28;20976;-71
2022/07/02 05:33:44;;;;;;;1.00;0.90;;;17.40;82.80;;;;;;5054095;28;20505;-71
2022/07/02 05:36:12;;;;;;;0.80;0.80;;;17.30;83.70;;;;;;5054410;28;20508;-71
2022/07/02 05:38:39;;;;;;;0.80;0.80;;;17.50;82.60;;;;;;5054283;28;20492;-71
2022/07/02 05:41:06;;;;;;;0.90;0.80;;;17.60;82.70;;;;;;5054234;28;20470;-71
2022/07/02 05:43:33;;;;;;;0.80;0.80;;;17.50;82.60;;;;;;5054186;28;20482;-71
2022/07/02 05:46:00;;;;;;;0.80;0.80;;;17.50;83.10;;;;;;5054014;28;20496;-71
2022/07/02 05:48:26;;;;;;;0.73;0.73;;;17.90;81.40;;;;;;5054425;28;20500;-71
2022/07/02 05:50:53;;;;;;;0.80;0.70;;;18.10;81.40;;;;;;5054102;28;20516;-71
2022/07/02 05:53:21;;;;;;;0.80;0.80;;;17.80;81.50;;;;;;5054130;28;20442;-71
2022/07/02 05:55:48;;;;;;;0.70;0.60;;;18.00;81.70;;;;;;5054134;28;20446;-69
2022/07/02 05:58:14;;;;;;;0.80;0.80;;;18.20;81.10;;;;;;5054041;28;20442;-69
2022/07/02 06:00:41;;;;;;;1.23;0.80;;;18.50;80.70;;;;;;5053387;28;20866;-70
2022/07/02 06:03:08;;;;;;;0.70;0.70;;;18.70;80.20;;;;;;5053804;28;20467;-69
2022/07/02 06:08:19;;;;;;;0.90;0.80;;;19.40;78.90;;;;;;5053759;28;20414;-69
2022/07/02 06:10:47;;;;;;;0.90;0.73;;;19.50;78.00;;;;;;5053605;28;20470;-70
2022/07/02 06:13:15;;;;;;;0.90;0.90;;;19.70;77.70;;;;;;5053647;28;20445;-70
2022/07/02 06:15:42;;;;;;;0.90;0.80;;;19.80;76.30;;;;;;5053565;28;20455;-70
2022/07/02 06:18:08;;;;;;;0.97;0.70;;;19.90;77.40;;;;;;5053586;28;20438;-69
2022/07/02 06:20:35;;;;;;;0.70;0.70;;;20.10;77.30;;;;;;5053429;28;20446;-70
2022/07/02 06:23:02;;;;;;;0.80;0.70;;;20.30;76.50;;;;;;5053413;28;20592;-69
2022/07/02 06:25:29;;;;;;;0.70;0.60;;;20.60;76.10;;;;;;5053487;28;20446;-69
2022/07/02 06:27:57;;;;;;;1.00;0.90;;;20.60;74.70;;;;;;5053490;28;20446;-69
2022/07/02 06:30:24;;;;;;;0.70;0.70;;;20.30;74.70;;;;;;5053347;28;20446;-69
2022/07/02 06:32:51;;;;;;;0.70;0.70;;;20.40;75.70;;;;;;5053356;28;20447;-69
2022/07/02 06:35:17;;;;;;;0.70;0.70;;;20.70;75.50;;;;;;5053294;28;20494;-69
2022/07/02 06:37:44;;;;;;;0.70;0.60;;;20.80;74.40;;;;;;5053277;28;20450;-69
2022/07/02 06:40:11;;;;;;;0.80;0.63;;;20.60;73.60;;;;;;5053322;28;20446;-69
2022/07/02 06:42:38;;;;;;;0.70;0.60;;;20.50;75.80;;;;;;5053240;28;20466;-70
2022/07/02 06:45:07;;;;;;;0.70;0.60;;;20.60;75.00;;;;;;5053257;28;20508;-70
2022/07/02 06:47:33;;;;;;;0.70;0.60;;;20.80;75.30;;;;;;5053250;28;20795;-69
2022/07/02 06:50:01;;;;;;;0.70;0.60;;;20.50;73.70;;;;;;5053212;28;20446;-70
2022/07/02 06:52:29;;;;;;;0.80;0.60;;;20.40;75.50;;;;;;5053101;28;20558;-70
2022/07/02 06:54:57;;;;;;;0.70;0.70;;;20.50;74.50;;;;;;5053182;28;20541;-71
2022/07/02 06:57:24;;;;;;;0.70;0.70;;;20.50;73.80;;;;;;5057138;28;20486;-71
2022/07/02 06:59:51;;;;;;;0.73;0.67;;;20.60;74.80;;;;;;5056985;28;21055;-71
2022/07/02 07:02:20;;;;;;;0.70;0.60;;;20.60;74.30;;;;;;5056840;28;20478;-70
2022/07/02 07:04:46;;;;;;;0.70;0.60;;;21.00;74.30;;;;;;5057130;28;20489;-71
2022/07/02 07:07:13;;;;;;;0.70;0.70;;;21.10;74.00;;;;;;5058471;28;20450;-71
2022/07/02 07:09:40;;;;;;;0.70;0.60;;;21.10;73.50;;;;;;5057025;28;20496;-70
2022/07/02 07:12:07;;;;;;;0.80;0.63;;;20.80;73.40;;;;;;5057009;28;20866;-70
2022/07/02 07:14:35;;;;;;;0.80;0.70;;;20.80;72.60;;;;;;5056993;28;20495;-70
2022/07/02 07:17:02;;;;;;;1.07;0.70;;;20.60;72.00;;;;;;5056958;28;20553;-70
2022/07/02 07:19:30;;;;;;;0.80;0.77;;;20.50;75.20;;;;;;5056924;28;20480;-70
2022/07/02 07:21:57;;;;;;;1.80;1.03;;;20.80;75.30;;;;;;5056803;28;20500;-72
2022/07/02 07:24:24;;;;;;;0.73;0.60;;;21.30;73.60;;;;;;5056696;28;20478;-71
2022/07/02 07:26:51;;;;;;;0.70;0.60;;;21.50;71.80;;;;;;5056758;28;20446;-71
2022/07/02 07:29:17;;;;;;;0.80;0.60;;;21.40;72.60;;;;;;5056372;28;20869;-71
2022/07/02 07:31:44;;;;;;;0.70;0.50;;;21.50;68.80;;;;;;5056318;28;20820;-71
2022/07/02 07:34:11;;;;;;;0.70;0.50;;;21.40;69.60;;;;;;5056655;28;20524;-71
2022/07/02 07:36:40;;;;;;;0.70;0.60;;;21.50;70.60;;;;;;5056284;28;20507;-71
2022/07/02 07:39:07;;;;;;;0.70;0.50;;;21.60;70.40;;;;;;5056464;28;20457;-71
2022/07/02 07:41:35;;;;;;;1.87;0.60;;;21.60;68.50;;;;;;5056455;28;20466;-71
2022/07/02 07:44:02;;;;;;;0.80;0.70;;;21.30;70.20;;;;;;5056091;28;20996;-72
2022/07/02 07:46:29;;;;;;;0.70;0.50;;;21.40;70.60;;;;;;5056086;28;20486;-72
2022/07/02 07:48:56;;;;;;;0.80;0.63;;;21.50;70.20;;;;;;5056034;28;21003;-72
2022/07/02 07:51:23;;;;;;;0.70;0.60;;;21.70;68.80;;;;;;5056076;28;20476;-72
2022/07/02 07:53:51;;;;;;;0.90;0.50;;;21.70;69.40;;;;;;5055989;28;20842;-72
2022/07/02 07:56:17;;;;;;;0.80;0.60;;;21.80;66.90;;;;;;5056137;28;20457;-72
2022/07/02 07:58:44;;;;;;;0.70;0.50;;;22.10;68.60;;;;;;5056187;28;20533;-72
2022/07/02 08:01:11;;;;;;;0.70;0.50;;;21.80;66.10;;;;;;5055828;28;20486;-72
2022/07/02 08:03:38;;;;;;;0.70;0.50;;;21.70;68.20;;;;;;5056033;28;20474;-72
2022/07/02 08:06:05;;;;;;;0.70;0.50;;;21.70;68.70;;;;;;5055790;28;20851;-73
2022/07/02 08:08:31;;;;;;;0.90;0.60;;;21.90;69.00;;;;;;5055261;28;20492;-72
2022/07/02 08:10:59;;;;;;;0.70;0.50;;;22.10;66.50;;;;;;5055992;28;20522;-73
2022/07/02 08:13:26;;;;;;;0.90;0.70;;;21.90;67.30;;;;;;5055861;28;20442;-72
2022/07/02 08:15:53;;;;;;;0.70;0.50;;;22.00;67.30;;;;;;5055564;28;21032;-72
2022/07/02 08:18:19;;;;;;;0.70;0.57;;;21.90;64.80;;;;;;5055749;28;20451;-72
2022/07/02 08:20:46;;;;;;;0.67;0.50;;;21.60;66.40;;;;;;5055378;28;20842;-72
2022/07/02 08:23:13;;;;;;;0.70;0.50;;;21.60;68.00;;;;;;5055671;28;20446;-72
2022/07/02 08:25:39;;;;;;;0.70;0.60;;;21.60;67.80;;;;;;5055608;28;20893;-72
2022/07/02 08:28:07;;;;;;;0.70;0.50;;;21.40;66.00;;;;;;5055644;28;20512;-72
2022/07/02 08:30:34;;;;;;;0.70;0.60;;;21.60;67.30;;;;;;5055218;28;20934;-72
2022/07/02 08:33:00;;;;;;;0.70;0.50;;;21.70;67.20;;;;;;5055264;28;21060;-72
2022/07/02 08:35:27;;;;;;;0.80;0.60;;;21.70;67.20;;;;;;5055491;28;20447;-72
2022/07/02 08:37:54;;;;;;;0.70;0.60;;;21.90;67.90;;;;;;5055415;28;20496;-72
2022/07/02 08:40:25;;;;;;;0.70;0.60;;;21.90;66.00;;;;;;5055079;28;20450;-72
2022/07/02 08:42:53;;;;;;;1.23;0.60;;;21.80;67.20;;;;;;5055421;28;20465;-72
2022/07/02 08:45:23;;;;;;;0.70;0.53;;;22.10;67.20;;;;;;5055203;28;20516;-72
2022/07/02 08:47:52;;;;;;;0.70;0.60;;;22.40;65.60;;;;;;5055260;28;20537;-72
2022/07/02 08:50:21;;;;;;;1.00;0.60;;;22.40;64.90;;;;;;5055223;28;20538;-72
2022/07/02 08:52:50;;;;;;;0.77;0.60;;;22.50;65.90;;;;;;5055177;28;20534;-72
2022/07/02 08:55:19;;;;;;;0.70;0.50;;;22.70;65.20;;;;;;5055127;28;20444;-72
2022/07/02 08:57:46;;;;;;;0.70;0.60;;;22.90;65.30;;;;;;5054999;28;20504;-73
2022/07/02 09:00:14;;;;;;;0.70;0.60;;;23.10;65.40;;;;;;5054982;28;20442;-73
2022/07/02 09:02:43;;;;;;;0.70;0.60;;;22.90;62.30;;;;;;5054546;28;20556;-73
2022/07/02 09:05:11;;;;;;;0.70;0.60;;;22.90;64.30;;;;;;5054512;28;20996;-73
2022/07/02 09:07:38;;;;;;;0.70;0.50;;;23.00;65.60;;;;;;5054890;28;20504;-73
2022/07/02 09:10:06;;;;;;;1.47;0.57;;;22.90;65.80;;;;;;5054819;28;20447;-72
2022/07/02 09:12:33;;;;;;;0.70;0.50;;;22.90;62.20;;;;;;5054759;28;20512;-72
2022/07/02 09:14:59;;;;;;;0.90;0.60;;;22.80;62.20;;;;;;5056193;28;20451;-72
2022/07/02 09:17:26;;;;;;;0.70;0.50;;;22.60;62.60;;;;;;5054675;28;20512;-72
2022/07/02 09:19:54;;;;;;;0.70;0.60;;;22.70;62.10;;;;;;5053581;28;20473;-72
2022/07/02 09:22:31;;;;;;;0.70;0.50;;;22.70;61.90;;;;;;5054504;28;20470;-72
2022/07/02 09:25:07;;;;;;;0.70;0.60;;;22.90;60.20;;;;;;5054529;28;20569;-73
2022/07/02 09:27:34;;;;;;;0.90;0.53;;;23.10;62.30;;;;;;5054517;28;20430;-73
2022/07/02 09:30:00;;;;;;;0.70;0.50;;;23.30;59.00;;;;;;5054429;28;20450;-73
2022/07/02 09:32:27;;;;;;;0.70;0.50;;;23.30;59.70;;;;;;5054860;28;20880;-73
2022/07/02 09:34:55;;;;;;;0.70;0.50;;;23.40;58.40;;;;;;5054381;28;20434;-73
2022/07/02 09:37:24;;;;;;;0.70;0.50;;;23.40;57.60;;;;;;5055205;28;20441;-73
2022/07/02 09:39:52;;;;;;;0.70;0.50;;;23.50;58.30;;;;;;5054280;28;20504;-73
2022/07/02 09:42:25;;;;;;;2.83;0.50;;;23.40;57.60;;;;;;5054174;28;20462;-73
2022/07/02 09:44:53;;;;;;;0.70;0.60;;;23.30;59.50;;;;;;5053796;28;20486;-73
2022/07/02 09:47:31;;;;;;;0.70;0.50;;;23.40;56.20;;;;;;5053887;28;20937;-73
2022/07/02 09:50:03;;;;;;;1.00;0.80;;;23.40;57.80;;;;;;5054199;28;20513;-72
2022/07/02 09:52:30;;;;;;;0.70;0.50;;;23.60;58.10;;;;;;5053732;28;20984;-73
2022/07/02 09:54:57;;;;;;;0.70;0.50;;;23.70;55.60;;;;;;5054044;28;20537;-73
2022/07/02 09:57:24;;;;;;;0.70;0.60;;;23.90;57.80;;;;;;5054042;28;20442;-73
2022/07/02 09:59:50;;;;;;;0.70;0.60;;;23.90;55.30;;;;;;5053658;28;20995;-73
2022/07/02 10:02:23;;;;;;;0.80;0.60;;;23.80;56.40;;;;;;5053532;28;20508;-73
2022/07/02 10:04:51;;;;;;;0.80;0.50;;;23.90;58.10;;;;;;5053439;28;20551;-73
2022/07/02 10:07:22;;;;;;;0.70;0.50;;;23.90;55.70;;;;;;5053558;28;21021;-73
2022/07/02 10:09:49;;;;;;;0.70;0.50;;;23.90;54.20;;;;;;5053805;28;20875;-73
2022/07/02 10:12:17;;;;;;;0.70;0.50;;;23.80;54.20;;;;;;5053587;28;20466;-73
2022/07/02 10:14:45;;;;;;;0.70;0.60;;;23.80;54.40;;;;;;5053972;28;20463;-74
2022/07/02 10:17:13;;;;;;;0.80;0.60;;;23.90;56.80;;;;;;5053942;28;20453;-73
2022/07/02 10:19:42;;;;;;;0.70;0.50;;;23.90;56.20;;;;;;5055168;28;20450;-73
2022/07/02 10:22:09;;;;;;;0.83;0.60;;;24.00;53.30;;;;;;5053830;28;20462;-73
2022/07/02 10:24:37;;;;;;;0.70;0.60;;;24.00;56.00;;;;;;5053858;28;20482;-74
2022/07/02 10:27:05;;;;;;;0.70;0.50;;;24.20;54.40;;;;;;5053842;28;20453;-73
2022/07/02 10:29:32;;;;;;;0.70;0.50;;;24.00;52.70;;;;;;5053599;28;20529;-75
2022/07/02 10:32:10;;;;;;;0.70;0.50;;;23.90;52.80;;;;;;5052791;28;20823;-75
2022/07/02 10:34:45;;;;;;;0.87;0.50;;;23.80;54.10;;;;;;5053431;28;20435;-75
2022/07/02 10:37:12;;;;;;;0.90;0.60;;;23.70;54.60;;;;;;5053389;28;20526;-75
2022/07/02 10:39:42;;;;;;;0.70;0.57;;;23.90;55.00;;;;;;5052959;28;20536;-75
2022/07/02 10:42:11;;;;;;;1.10;0.50;;;24.20;56.20;;;;;;5053264;28;20467;-75
2022/07/02 10:44:39;;;;;;;0.70;0.60;;;24.50;56.30;;;;;;5053276;28;20897;-75
2022/07/02 10:47:06;;;;;;;0.70;0.50;;;24.90;54.70;;;;;;5053288;28;20533;-75
2022/07/02 10:49:33;;;;;;;0.70;0.60;;;24.80;51.00;;;;;;5053288;28;20849;-75
2022/07/02 10:52:04;;;;;;;0.70;0.50;;;24.60;53.60;;;;;;5052967;28;20989;-75
2022/07/02 10:54:32;;;;;;;0.70;0.50;;;24.50;51.30;;;;;;5053240;28;20514;-75
2022/07/02 10:57:00;;;;;;;0.70;0.60;;;24.50;51.40;;;;;;5053187;28;20859;-75
2022/07/02 10:59:29;;;;;;;0.67;0.50;;;24.80;54.30;;;;;;5052809;28;20854;-75
2022/07/02 11:02:03;;;;;;;0.80;0.60;;;24.80;50.70;;;;;;5052912;28;20489;-74
2022/07/02 11:04:29;;;;;;;0.70;0.50;;;24.50;51.60;;;;;;5052856;28;20948;-74
2022/07/02 11:07:07;;;;;;;1.03;0.50;;;24.30;50.70;;;;;;5052846;28;20827;-74
2022/07/02 11:09:46;;;;;;;0.70;0.50;;;24.20;50.90;;;;;;5053747;28;20492;-73
2022/07/02 11:12:19;;;;;;;0.70;0.50;;;24.10;51.50;;;;;;5052931;28;20869;-75
2022/07/02 11:14:55;;;;;;;0.70;0.50;;;24.30;50.90;;;;;;5053062;28;20510;-75
2022/07/02 11:17:23;;;;;;;0.70;0.50;;;24.60;51.60;;;;;;5053040;28;20506;-75
2022/07/02 11:19:54;;;;;;;0.70;0.57;;;24.70;52.90;;;;;;5052653;28;21012;-75
2022/07/02 11:22:21;;;;;;;0.70;0.50;;;24.70;49.90;;;;;;5052905;28;20477;-75
2022/07/02 11:24:48;;;;;;;0.70;0.50;;;24.70;51.50;;;;;;5052915;28;20482;-75
2022/07/02 11:27:16;;;;;;;0.70;0.50;;;24.90;49.90;;;;;;5052627;28;20956;-74
2022/07/02 11:29:53;;;;;;;0.70;0.50;;;24.90;49.00;;;;;;5052895;28;20443;-74
2022/07/02 11:32:19;;;;;;;0.70;0.50;;;24.90;50.50;;;;;;5052795;28;20519;-75
2022/07/02 11:34:46;;;;;;;1.07;0.60;;;25.00;49.60;;;;;;5052844;28;20446;-76
2022/07/02 11:37:21;;;;;;;0.70;0.60;;;25.10;50.10;;;;;;5053198;28;20485;-74
2022/07/02 11:39:48;;;;;;;0.70;0.50;;;25.40;50.10;;;;;;5052915;28;20484;-74
2022/07/02 11:42:16;;;;;;;0.70;0.50;;;25.40;49.50;;;;;;5052874;28;20462;-75
2022/07/02 11:44:42;;;;;;;0.70;0.53;;;25.10;48.90;;;;;;5056380;28;20451;-76
2022/07/02 11:47:09;;;;;;;0.70;0.60;;;25.10;50.90;;;;;;5056402;28;20458;-75
2022/07/02 11:49:37;;;;;;;0.73;0.50;;;25.30;50.40;;;;;;5056394;28;20449;-75
2022/07/02 11:52:06;;;;;;;0.70;0.50;;;25.40;50.70;;;;;;5056250;28;20497;-74
2022/07/02 11:54:33;;;;;;;0.70;0.50;;;25.50;50.20;;;;;;5056374;28;20453;-75
2022/07/02 11:56:59;;;;;;;0.70;0.50;;;25.70;51.20;;;;;;5056586;28;20446;-74
2022/07/02 11:59:27;;;;;;;0.70;0.50;;;25.70;47.40;;;;;;5056833;28;20446;-73
2022/07/02 12:01:55;;;;;;;0.93;0.50;;;25.40;47.60;;;;;;5055732;28;20485;-73
2022/07/02 12:04:23;;;;;;;0.70;0.60;;;25.10;45.90;;;;;;5056081;28;20476;-72
2022/07/02 12:06:52;;;;;;;0.70;0.50;;;25.00;48.80;;;;;;5056101;28;20894;-75
2022/07/02 12:09:22;;;;;;;0.70;0.60;;;25.00;50.00;;;;;;5056062;28;20829;-74
2022/07/02 12:11:49;;;;;;;0.70;0.50;;;25.20;51.70;;;;;;5055873;28;20524;-74
2022/07/02 12:14:17;;;;;;;1.13;0.60;;;25.40;51.10;;;;;;5055898;28;20855;-73
2022/07/02 12:16:46;;;;;;;0.70;0.60;;;25.60;51.20;;;;;;5055955;28;20449;-76
2022/07/02 12:19:14;;;;;;;0.70;0.60;;;25.60;49.40;;;;;;5056099;28;20446;-78
2022/07/02 12:21:44;;;;;;;0.80;0.60;;;25.60;50.90;;;;;;5055988;28;20527;-77
2022/07/02 12:24:19;;;;;;;0.67;0.50;;;25.50;51.80;;;;;;5055733;28;20442;-75
2022/07/02 12:26:47;;;;;;;0.70;0.50;;;25.80;51.10;;;;;;5055481;28;20840;-77
2022/07/02 12:32:07;;;;;;;1.37;0.70;;;25.70;51.10;;;;;;5055541;28;20572;-73
2022/07/02 12:34:38;;;;;;;0.70;0.50;;;26.00;50.00;;;;;;5055591;28;20798;-76
2022/07/02 12:37:05;;;;;;;0.70;0.50;;;25.90;46.90;;;;;;5055648;28;20446;-77
2022/07/02 12:39:40;;;;;;;0.70;0.50;;;25.60;48.00;;;;;;5055607;28;20495;-75
2022/07/02 12:42:19;;;;;;;0.80;0.60;;;25.60;50.10;;;;;;5055032;28;20969;-73
2022/07/02 12:44:57;;;;;;;0.70;0.50;;;25.70;49.70;;;;;;5055412;28;20433;-77
2022/07/02 12:47:28;;;;;;;0.70;0.50;;;25.70;49.90;;;;;;5055491;28;20910;-75
2022/07/02 12:50:00;;;;;;;0.70;0.50;;;25.60;49.80;;;;;;5055299;28;20497;-75
2022/07/02 12:52:30;;;;;;;0.70;0.50;;;25.80;50.10;;;;;;5054813;28;20466;-75
2022/07/02 12:54:57;;;;;;;0.70;0.50;;;26.20;49.90;;;;;;5054986;28;20451;-75
2022/07/02 12:57:25;;;;;;;0.70;0.70;;;26.50;49.20;;;;;;5054868;28;20941;-75
2022/07/02 12:59:53;;;;;;;0.70;0.60;;;26.40;50.20;;;;;;5055143;28;20446;-75
2022/07/02 13:02:24;;;;;;;0.70;0.50;;;26.40;50.60;;;;;;5055474;28;20478;-73
2022/07/02 13:04:52;;;;;;;0.70;0.50;;;26.30;50.30;;;;;;5055039;28;20500;-73
2022/07/02 13:07:19;;;;;;;0.70;0.53;;;26.20;50.40;;;;;;5055134;28;20854;-73
2022/07/02 13:09:47;;;;;;;0.70;0.50;;;26.20;50.40;;;;;;5055055;28;20450;-73
2022/07/02 13:12:16;;;;;;;0.70;0.50;;;26.00;51.20;;;;;;5054503;28;20820;-72
2022/07/02 13:14:43;;;;;;;0.70;0.50;;;26.20;50.20;;;;;;5054820;28;20533;-73
2022/07/02 13:17:11;;;;;;;0.70;0.57;;;26.40;50.90;;;;;;5054697;28;20472;-75
2022/07/02 13:19:41;;;;;;;0.70;0.50;;;26.60;52.90;;;;;;5054691;28;20494;-73
2022/07/02 13:22:11;;;;;;;0.70;0.50;;;26.30;50.90;;;;;;5054581;28;20466;-73
2022/07/02 13:24:37;;;;;;;0.70;0.50;;;25.80;52.40;;;;;;5054559;28;20449;-75
2022/07/02 13:27:05;;;;;;;0.70;0.60;;;25.80;51.60;;;;;;5054168;28;21000;-72
2022/07/02 13:29:32;;;;;;;0.70;0.50;;;26.00;51.60;;;;;;5054434;28;20442;-71
2022/07/02 13:31:59;;;;;;;0.70;0.60;;;25.90;51.70;;;;;;5054350;28;20466;-72
2022/07/02 13:34:26;;;;;;;0.70;0.50;;;26.10;52.90;;;;;;5054374;28;20880;-71
2022/07/02 13:36:53;;;;;;;0.70;0.50;;;26.10;51.80;;;;;;5054319;28;20434;-71
2022/07/02 13:39:21;;;;;;;0.70;0.50;;;26.00;50.50;;;;;;5054237;28;20450;-73
2022/07/02 13:41:48;;;;;;;0.70;0.50;;;26.20;51.40;;;;;;5053837;28;20850;-70
2022/07/02 13:44:14;;;;;;;0.70;0.50;;;26.30;49.90;;;;;;5054154;28;20443;-70
2022/07/02 13:46:41;;;;;;;0.90;0.60;;;26.40;50.30;;;;;;5054009;28;20523;-70
2022/07/02 13:49:08;;;;;;;0.70;0.50;;;26.50;50.60;;;;;;5054088;28;20449;-70
2022/07/02 13:51:34;;;;;;;0.70;0.50;;;26.50;50.50;;;;;;5053967;28;20520;-70
2022/07/02 13:54:01;;;;;;;0.70;0.50;;;26.60;51.70;;;;;;5053980;28;20497;-70
2022/07/02 13:56:29;;;;;;;0.70;0.50;;;26.80;50.90;;;;;;5053623;28;20945;-70
2022/07/02 13:58:56;;;;;;;0.70;0.50;;;27.00;49.00;;;;;;5053947;28;20446;-70
2022/07/02 14:01:24;;;;;;;0.80;0.60;;;26.60;50.90;;;;;;5053564;28;20504;-71
2022/07/02 14:03:51;;;;;;;0.70;0.50;;;26.30;49.80;;;;;;5053854;28;20508;-70
2022/07/02 14:06:17;;;;;;;0.70;0.50;;;26.30;51.80;;;;;;5053254;28;20482;-70
2022/07/02 14:08:44;;;;;;;0.70;0.50;;;26.30;50.20;;;;;;5053475;28;20450;-69
2022/07/02 14:11:11;;;;;;;0.70;0.60;;;26.50;51.70;;;;;;5053659;28;20682;-70
2022/07/02 14:13:40;;;;;;;0.70;0.50;;;26.80;49.40;;;;;;5053687;28;20503;-71
2022/07/02 14:16:07;;;;;;;0.70;0.50;;;26.80;49.90;;;;;;5053643;28;20488;-70
2022/07/02 14:18:35;;;;;;;0.70;0.50;;;26.70;49.10;;;;;;5053615;28;20442;-70
2022/07/02 14:21:03;;;;;;;0.70;0.50;;;26.70;48.60;;;;;;5053267;28;21059;-71
2022/07/02 14:23:30;;;;;;;0.70;0.50;;;26.40;48.80;;;;;;5053551;28;20477;-70
2022/07/02 14:25:57;;;;;;;0.80;0.50;;;26.30;47.90;;;;;;5053472;28;20488;-70
2022/07/02 14:28:24;;;;;;;0.70;0.50;;;26.30;48.50;;;;;;5053471;28;20442;-71
2022/07/02 14:30:53;;;;;;;0.70;0.50;;;26.30;48.50;;;;;;5053402;28;20468;-70
2022/07/02 14:33:20;;;;;;;0.80;0.60;;;26.60;47.70;;;;;;5053188;28;21007;-70
2022/07/02 14:35:46;;;;;;;0.70;0.60;;;26.70;48.90;;;;;;5053459;28;20945;-73
2022/07/02 14:38:13;;;;;;;0.70;0.50;;;26.90;49.60;;;;;;5053123;28;20864;-71
2022/07/02 14:40:40;;;;;;;0.70;0.50;;;27.00;48.40;;;;;;5053616;28;20493;-71
2022/07/02 14:43:07;;;;;;;0.70;0.50;;;27.00;48.50;;;;;;5054201;28;20446;-71
2022/07/02 14:45:34;;;;;;;0.80;0.60;;;27.00;46.80;;;;;;5053361;28;20866;-71
2022/07/02 14:48:02;;;;;;;1.20;0.57;;;26.90;48.00;;;;;;5053455;28;20445;-71
2022/07/02 14:50:29;;;;;;;0.70;0.50;;;26.80;48.50;;;;;;5053278;28;20453;-72
2022/07/02 14:52:56;;;;;;;0.70;0.50;;;26.80;48.20;;;;;;5052942;28;20936;-71
2022/07/02 14:55:23;;;;;;;0.70;0.60;;;26.70;47.50;;;;;;5053137;28;20938;-71
2022/07/02 14:57:49;;;;;;;0.90;0.50;;;26.70;47.30;;;;;;5053396;28;20438;-72
2022/07/02 15:00:16;;;;;;;0.60;0.50;;;26.70;47.50;;;;;;5053204;28;20442;-72
2022/07/02 15:02:43;;;;;;;0.70;0.50;;;26.70;47.60;;;;;;5053014;28;20482;-72
2022/07/02 15:05:11;;;;;;;0.70;0.50;;;26.70;48.60;;;;;;5053176;28;20446;-71
2022/07/02 15:07:40;;;;;;;0.70;0.60;;;26.90;48.10;;;;;;5054119;28;20524;-71
2022/07/02 15:10:09;;;;;;;0.70;0.50;;;27.20;48.30;;;;;;5053055;28;20458;-71
2022/07/02 15:12:36;;;;;;;0.70;0.60;;;27.10;47.30;;;;;;5052929;28;20473;-71
2022/07/02 15:17:46;;;;;;;0.70;0.50;;;26.70;47.50;;;;;;5055718;28;20401;-72
2022/07/02 15:20:14;;;;;;;0.80;0.50;;;26.70;47.80;;;;;;5056910;28;20442;-72
2022/07/02 15:22:46;;;;;;;0.70;0.50;;;27.00;49.00;;;;;;5056800;28;20466;-72
2022/07/02 15:25:14;;;;;;;0.70;0.50;;;27.20;48.20;;;;;;5056836;28;20426;-73
2022/07/02 15:27:43;;;;;;;0.70;0.50;;;27.50;47.30;;;;;;5056407;28;21055;-72
2022/07/02 15:30:12;;;;;;;0.70;0.50;;;27.70;47.90;;;;;;5056749;28;20533;-72
2022/07/02 15:32:39;;;;;;;0.70;0.50;;;28.00;47.40;;;;;;5056646;28;20470;-73
2022/07/02 15:35:06;;;;;;;0.70;0.50;;;27.40;47.90;;;;;;5056347;28;20933;-72
2022/07/02 15:37:37;;;;;;;0.70;0.50;;;27.00;47.00;;;;;;5056620;28;20438;-72
2022/07/02 15:40:06;;;;;;;0.70;0.60;;;27.20;47.30;;;;;;5056570;28;20418;-72
2022/07/02 15:42:33;;;;;;;0.70;0.50;;;27.30;48.00;;;;;;5056481;28;20463;-72
2022/07/02 15:45:00;;;;;;;1.10;0.53;;;27.30;47.10;;;;;;5056444;28;20446;-72
2022/07/02 15:47:29;;;;;;;0.70;0.50;;;27.10;47.60;;;;;;5056153;28;20584;-72
2022/07/02 15:49:56;;;;;;;0.70;0.50;;;27.00;47.50;;;;;;5056334;28;20442;-72
2022/07/02 15:52:29;;;;;;;0.97;0.60;;;26.80;47.40;;;;;;5056236;28;20883;-72
2022/07/02 15:55:04;;;;;;;0.70;0.50;;;26.60;48.00;;;;;;5056350;28;20426;-72
2022/07/02 15:57:43;;;;;;;0.70;0.50;;;26.60;48.00;;;;;;5056277;28;20446;-71
2022/07/02 16:00:11;;;;;;;0.70;0.50;;;26.90;48.20;;;;;;5056284;28;20440;-72